createdAt,value
2019-04-20T00:00:54.753Z,41.58
2019-04-20T00:03:35.308Z,41.62
2019-04-20T00:06:06.966Z,41.76
2019-04-20T00:08:44.412Z,41.99
2019-04-20T00:11:26.224Z,42.31
2019-04-20T00:14:04.101Z,42.38
2019-04-20T00:16:33.798Z,42.61
2019-04-20T00:19:10.539Z,42.93
2019-04-20T00:21:56.133Z,42.97
2019-04-20T00:24:31.044Z,43.11
2019-04-20T00:27:26.098Z,43.30
2019-04-20T00:29:59.719Z,43.37
2019-04-20T00:35:20.905Z,43.48
2019-04-20T00:37:57.072Z,44.04
2019-04-20T00:40:35.579Z,44.50
2019-04-20T00:43:14.126Z,44.52
2019-04-20T00:45:53.786Z,44.58
2019-04-20T00:48:38.556Z,44.63
2019-04-20T00:51:23.895Z,44.89
2019-04-20T00:53:43.324Z,45.21
2019-04-20T00:56:16.208Z,45.36
2019-04-20T00:59:05.741Z,45.61
2019-04-20T01:01:53.497Z,45.83
2019-04-20T01:04:32.837Z,45.64
2019-04-20T01:07:04.600Z,45.51
2019-04-20T01:09:49.914Z,45.47
2019-04-20T01:12:28.569Z,45.70
2019-04-20T01:15:05.771Z,45.97
2019-04-20T01:17:41.797Z,46.74
2019-04-20T01:20:16.911Z,46.74
2019-04-20T01:23:00.055Z,46.64
2019-04-20T01:25:33.851Z,47.07
2019-04-20T01:28:25.048Z,47.23
2019-04-20T01:30:51.574Z,47.53
2019-04-20T01:33:34.352Z,47.81
2019-04-20T01:36:24.022Z,47.90
2019-04-20T01:38:47.192Z,48.04
2019-04-20T01:41:12.200Z,48.15
2019-04-20T01:43:48.102Z,48.28
2019-04-20T01:46:28.378Z,48.50
2019-04-20T01:49:10.549Z,48.73
2019-04-20T01:51:49.142Z,48.91
2019-04-20T01:54:31.195Z,49.31
2019-04-20T01:57:04.668Z,49.55
2019-04-20T01:59:52.107Z,49.93
2019-04-20T02:02:21.661Z,50.07
2019-04-20T02:05:06.111Z,50.45
2019-04-20T02:07:38.948Z,50.64
2019-04-20T02:10:15.137Z,50.97
2019-04-20T02:12:55.635Z,51.52
2019-04-20T02:15:32.698Z,51.62
2019-04-20T02:18:14.858Z,51.99
2019-04-20T02:21:01.303Z,52.03
2019-04-20T02:23:31.546Z,52.19
2019-04-20T02:25:54.930Z,52.20
2019-04-20T02:28:55.346Z,52.35
2019-04-20T02:34:24.121Z,52.34
2019-04-20T02:40:07.216Z,52.97
2019-04-20T02:42:34.924Z,53.09
2019-04-20T02:47:51.247Z,53.69
2019-04-20T02:50:20.668Z,53.80
2019-04-20T02:53:05.254Z,53.90
2019-04-20T02:55:41.960Z,53.87
2019-04-20T02:58:15.458Z,54.00
2019-04-20T03:00:44.775Z,54.02
2019-04-20T03:03:10.123Z,54.34
2019-04-20T03:05:43.443Z,54.35
2019-04-20T03:08:26.583Z,54.37
2019-04-20T03:11:15.916Z,54.56
2019-04-20T03:13:46.040Z,54.88
2019-04-20T03:16:22.383Z,54.97
2019-04-20T03:18:53.521Z,55.53
2019-04-20T03:21:38.049Z,55.82
2019-04-20T03:24:19.347Z,56.19
2019-04-20T03:26:52.974Z,56.72
2019-04-20T03:29:51.087Z,56.91
2019-04-20T03:32:57.605Z,57.40
2019-04-20T03:37:46.567Z,57.95
2019-04-20T03:40:12.889Z,58.08
2019-04-20T03:42:37.129Z,58.41
2019-04-20T03:45:16.361Z,58.91
2019-04-20T03:48:00.697Z,59.36
2019-04-20T03:50:47.935Z,59.66
2019-04-20T03:53:22.909Z,60.02
2019-04-20T03:56:03.238Z,60.09
2019-04-20T03:58:47.102Z,60.52
2019-04-20T04:02:03.302Z,60.77
2019-04-20T04:04:21.452Z,60.88
2019-04-20T04:06:46.379Z,61.24
2019-04-20T04:09:25.711Z,61.67
2019-04-20T04:12:06.614Z,61.98
2019-04-20T04:14:30.404Z,62.00
2019-04-20T04:17:06.177Z,62.03
2019-04-20T04:19:52.070Z,62.33
2019-04-20T04:22:37.626Z,62.60
2019-04-20T04:25:09.984Z,62.73
2019-04-20T04:27:55.067Z,62.91
2019-04-20T04:30:30.778Z,63.24
2019-04-20T04:33:42.737Z,63.37
2019-04-20T04:35:51.604Z,63.50
2019-04-20T04:38:39.595Z,63.39
2019-04-20T04:41:17.059Z,63.58
2019-04-20T04:43:47.360Z,63.62
2019-04-20T04:46:03.919Z,63.97
2019-04-20T04:48:44.017Z,63.83
2019-04-20T04:51:22.936Z,63.92
2019-04-20T04:54:01.810Z,64.01
2019-04-20T04:56:32.026Z,64.01
2019-04-20T04:59:08.656Z,63.82
2019-04-20T05:01:46.982Z,63.65
2019-04-20T05:04:48.561Z,63.21
2019-04-20T05:07:12.874Z,62.92
2019-04-20T05:09:38.010Z,62.78
2019-04-20T05:12:19.675Z,62.68
2019-04-20T05:15:01.929Z,62.63
2019-04-20T05:17:51.836Z,62.24
2019-04-20T05:20:22.053Z,61.71
2019-04-20T05:23:04.903Z,61.89
2019-04-20T05:25:56.997Z,61.86
2019-04-20T05:28:24.268Z,61.67
2019-04-20T05:30:59.324Z,61.48
2019-04-20T05:33:56.118Z,61.22
2019-04-20T05:36:30.384Z,61.20
2019-04-20T05:39:13.140Z,61.17
2019-04-20T05:41:40.615Z,61.14
2019-04-20T05:44:12.818Z,60.84
2019-04-20T05:46:59.459Z,60.65
2019-04-20T05:49:31.685Z,60.40
2019-04-20T05:52:24.088Z,60.26
2019-04-20T05:54:45.624Z,60.02
2019-04-20T06:00:21.535Z,60.02
2019-04-20T06:02:36.689Z,59.78
2019-04-20T06:05:20.251Z,59.88
2019-04-20T06:07:57.927Z,60.38
2019-04-20T06:10:32.003Z,60.61
2019-04-20T06:13:22.903Z,60.19
2019-04-20T06:16:07.336Z,60.05
2019-04-20T06:19:10.274Z,59.33
2019-04-20T06:21:37.766Z,58.89
2019-04-20T06:24:20.707Z,58.54
2019-04-20T06:27:00.890Z,58.52
2019-04-20T06:29:26.366Z,58.17
2019-04-20T06:32:14.060Z,57.45
2019-04-20T06:34:41.641Z,57.05
2019-04-20T06:37:24.464Z,56.39
2019-04-20T06:40:07.861Z,56.45
2019-04-20T06:42:35.895Z,55.13
2019-04-20T06:45:20.205Z,54.92
2019-04-20T06:47:52.041Z,54.43
2019-04-20T06:50:22.626Z,53.85
2019-04-20T06:53:32.052Z,53.22
2019-04-20T06:56:06.731Z,52.50
2019-04-20T06:58:47.525Z,51.48
2019-04-20T07:01:13.693Z,51.35
2019-04-20T07:04:04.293Z,51.53
2019-04-20T07:06:48.421Z,50.91
2019-04-20T07:09:20.258Z,49.99
2019-04-20T07:11:42.709Z,46.76
2019-04-20T07:14:06.591Z,42.22
2019-04-20T07:17:09.612Z,39.59
2019-04-20T07:19:50.484Z,36.53
2019-04-20T07:22:46.144Z,34.53
2019-04-20T07:25:26.257Z,32.91
2019-04-20T07:28:02.980Z,32.09
2019-04-20T07:30:35.237Z,31.22
2019-04-20T07:33:15.644Z,30.78
2019-04-20T07:35:53.005Z,29.46
2019-04-20T07:41:01.511Z,28.68
2019-04-20T07:43:54.111Z,28.15
2019-04-20T07:46:39.533Z,27.57
2019-04-20T07:49:01.365Z,28.04
2019-04-20T07:51:23.146Z,27.74
2019-04-20T07:54:33.331Z,27.38
2019-04-20T07:57:03.931Z,27.46
2019-04-20T07:59:30.573Z,27.22
2019-04-20T08:02:46.939Z,27.21
2019-04-20T08:05:10.634Z,26.50
2019-04-20T08:07:44.515Z,26.40
2019-04-20T08:10:35.368Z,25.88
2019-04-20T08:13:40.304Z,24.98
2019-04-20T08:16:25.834Z,23.10
2019-04-20T08:18:54.698Z,22.29
2019-04-20T08:21:38.813Z,22.91
2019-04-20T08:24:17.211Z,22.22
2019-04-20T08:26:51.867Z,22.91
2019-04-20T08:42:10.217Z,22.71
2019-04-20T08:45:08.340Z,22.40
2019-04-20T08:47:56.389Z,22.54
2019-04-20T08:50:27.024Z,22.34
2019-04-20T08:53:17.369Z,22.22
2019-04-20T08:55:46.601Z,22.47
2019-04-20T08:58:09.263Z,23.56
2019-04-20T09:00:49.995Z,23.56
2019-04-20T09:03:30.225Z,22.90
2019-04-20T09:06:08.702Z,21.75
2019-04-20T09:08:50.872Z,20.11
2019-04-20T09:11:39.974Z,19.42
2019-04-20T09:13:58.352Z,18.67
2019-04-20T09:16:40.948Z,17.76
2019-04-20T09:25:57.923Z,18.25
2019-04-20T09:28:16.123Z,18.02
2019-04-20T09:31:11.927Z,18.47
2019-04-20T09:37:24.695Z,18.58
2019-04-20T09:40:10.950Z,19.36
2019-04-20T09:42:26.393Z,18.88
2019-04-20T09:45:07.868Z,18.78
2019-04-20T09:47:49.459Z,18.59
2019-04-20T09:50:37.590Z,17.68
2019-04-20T09:53:20.886Z,15.70
2019-04-20T09:55:56.806Z,15.70
2019-04-20T09:58:37.903Z,15.63
2019-04-20T10:01:13.593Z,15.25
2019-04-20T10:06:51.796Z,13.99
2019-04-20T10:09:38.253Z,14.39
2019-04-20T10:15:28.321Z,14.52
2019-04-20T10:18:03.765Z,13.95
2019-04-20T10:26:58.980Z,16.03
2019-04-20T10:40:00.605Z,14.45
2019-04-20T10:55:45.267Z,13.07
2019-04-20T11:04:59.162Z,13.19
2019-04-20T11:07:41.223Z,13.53
2019-04-20T11:13:27.607Z,13.67
2019-04-20T11:19:15.631Z,14.42
2019-04-20T11:25:04.272Z,14.85
2019-04-20T11:27:45.991Z,14.29
2019-04-20T11:30:32.213Z,15.50
2019-04-20T11:33:11.691Z,16.01
2019-04-20T11:35:48.544Z,15.27
2019-04-20T11:38:30.525Z,14.78
2019-04-20T11:41:22.966Z,13.91
2019-04-20T11:43:55.756Z,13.34
2019-04-20T11:46:39.144Z,13.48
2019-04-20T11:49:17.513Z,13.45
2019-04-20T11:55:04.437Z,13.83
2019-04-20T11:58:05.878Z,13.44
2019-04-20T12:01:02.734Z,13.67
2019-04-20T12:03:54.265Z,13.01
2019-04-20T12:12:42.123Z,10.93
2019-04-20T12:25:08.046Z,10.55
2019-04-20T12:28:27.549Z,10.89
2019-04-20T12:31:24.652Z,11.19
2019-04-20T12:37:34.275Z,11.64
2019-04-20T12:47:03.690Z,11.18
2019-04-20T12:49:53.764Z,11.37
2019-04-20T12:55:52.677Z,11.50
2019-04-20T13:01:53.377Z,13.09
2019-04-20T13:04:37.280Z,13.37
2019-04-20T13:44:38.737Z,10.25
2019-04-20T13:47:14.910Z,11.18
2019-04-20T13:50:13.171Z,10.97
2019-04-20T13:56:32.242Z,10.99
2019-04-20T14:02:48.949Z,10.22
2019-04-20T14:05:46.795Z,10.56
2019-04-20T14:18:11.132Z,11.50
2019-04-20T14:48:42.650Z,10.65
2019-04-20T14:51:42.104Z,10.21
2019-04-20T14:54:21.459Z,10.56
2019-04-20T14:57:01.498Z,10.57
2019-04-20T14:59:43.368Z,10.31
2019-04-20T15:02:26.056Z,10.28
2019-04-20T15:08:22.880Z,9.98
2019-04-20T15:11:12.580Z,9.86
2019-04-20T15:13:56.438Z,9.87
2019-04-20T15:23:21.563Z,10.54
2019-04-20T15:26:11.002Z,10.65
2019-04-20T15:41:15.527Z,10.07
2019-04-20T15:44:29.306Z,9.51
2019-04-20T15:53:17.782Z,9.61
2019-04-20T15:56:11.263Z,9.94
2019-04-20T15:58:50.592Z,10.09
2019-04-20T16:01:34.615Z,10.02
2019-04-20T16:04:48.683Z,9.64
2019-04-20T16:07:48.567Z,9.90
2019-04-20T16:10:28.502Z,10.33
2019-04-20T16:13:16.256Z,10.47
2019-04-20T16:25:37.309Z,11.39
2019-04-20T16:28:27.787Z,12.15
2019-04-20T16:34:15.973Z,11.98
2019-04-20T16:36:56.129Z,12.20
2019-04-20T16:39:34.745Z,11.94
2019-04-20T16:42:18.260Z,12.33
2019-04-20T16:45:05.469Z,12.23
2019-04-20T16:47:54.556Z,12.26
2019-04-20T16:50:33.043Z,12.90
2019-04-20T16:53:26.763Z,13.17
2019-04-20T16:56:24.544Z,13.06
2019-04-20T16:59:12.231Z,13.03
2019-04-20T17:02:02.463Z,14.38
2019-04-20T17:04:39.057Z,14.75
2019-04-20T17:07:28.927Z,16.10
2019-04-20T17:10:07.516Z,16.84
2019-04-20T17:12:44.064Z,17.90
2019-04-20T17:15:23.486Z,18.10
2019-04-20T17:18:01.328Z,18.94
2019-04-20T17:20:38.934Z,19.45
2019-04-20T17:23:17.547Z,19.66
2019-04-20T17:25:52.931Z,20.07
2019-04-20T17:28:36.742Z,20.52
2019-04-20T17:31:17.474Z,21.01
2019-04-20T17:34:06.585Z,21.23
2019-04-20T17:36:38.322Z,21.06
2019-04-20T17:39:25.328Z,21.37
2019-04-20T17:42:07.400Z,21.42
2019-04-20T17:44:42.837Z,21.69
2019-04-20T17:47:27.528Z,21.88
2019-04-20T17:50:06.062Z,22.03
2019-04-20T17:52:44.468Z,22.47
2019-04-20T17:55:16.196Z,23.03
2019-04-20T17:57:41.674Z,23.29
2019-04-20T18:00:24.094Z,23.76
2019-04-20T18:03:30.281Z,24.23
2019-04-20T18:06:14.122Z,24.19
2019-04-20T18:08:50.583Z,24.35
2019-04-20T18:11:15.193Z,24.92
2019-04-20T18:13:47.842Z,24.69
2019-04-20T18:16:46.620Z,25.24
2019-04-20T18:19:17.209Z,25.11
2019-04-20T18:21:49.733Z,25.94
2019-04-20T18:24:48.972Z,26.13
2019-04-20T18:27:24.804Z,26.62
2019-04-20T18:29:58.782Z,25.37
2019-04-20T18:32:27.493Z,25.20
2019-04-20T18:35:18.210Z,25.78
2019-04-20T18:38:02.591Z,25.63
2019-04-20T18:40:44.629Z,27.07
2019-04-20T18:43:18.283Z,28.67
2019-04-20T18:46:10.974Z,28.17
2019-04-20T18:48:45.189Z,26.55
2019-04-20T18:51:03.935Z,27.47
2019-04-20T18:53:42.895Z,27.09
2019-04-20T18:56:23.900Z,26.94
2019-04-20T18:58:53.818Z,27.48
2019-04-20T19:01:30.966Z,26.31
2019-04-20T19:04:07.795Z,26.56
2019-04-20T19:06:43.790Z,27.46
2019-04-20T19:09:25.019Z,27.47
2019-04-20T19:12:02.490Z,27.81
2019-04-20T19:15:02.432Z,28.35
2019-04-20T19:17:49.806Z,28.44
2019-04-20T19:20:25.019Z,28.22
2019-04-20T19:23:00.113Z,28.45
2019-04-20T19:25:38.881Z,28.57
2019-04-20T19:28:14.460Z,28.73
2019-04-20T19:31:01.807Z,28.88
2019-04-20T19:33:40.232Z,29.02
2019-04-20T19:36:17.695Z,29.32
2019-04-20T19:38:52.307Z,29.34
2019-04-20T19:41:28.691Z,29.75
2019-04-20T19:44:07.029Z,29.90
2019-04-20T19:47:05.068Z,30.74
2019-04-20T19:49:21.729Z,30.69
2019-04-20T19:52:20.191Z,31.19
2019-04-20T19:54:43.373Z,31.46
2019-04-20T19:57:20.420Z,31.82
2019-04-20T19:59:41.321Z,31.98
2019-04-20T20:02:13.952Z,32.19
2019-04-20T20:04:54.668Z,32.35
2019-04-20T20:07:33.321Z,32.45
2019-04-20T20:10:06.009Z,32.63
2019-04-20T20:12:48.387Z,32.65
2019-04-20T20:15:25.707Z,33.08
2019-04-20T20:18:15.507Z,33.06
2019-04-20T20:20:52.901Z,33.41
2019-04-20T20:23:10.062Z,33.52
2019-04-20T20:25:48.135Z,33.87
2019-04-20T20:28:31.367Z,33.81
2019-04-20T20:31:08.381Z,34.08
2019-04-20T20:33:54.627Z,34.14
2019-04-20T20:36:21.947Z,34.32
2019-04-20T20:39:08.569Z,34.61
2019-04-20T20:41:45.137Z,34.64
2019-04-20T20:44:24.325Z,34.70
2019-04-20T20:47:10.638Z,35.02
2019-04-20T20:49:48.621Z,35.36
2019-04-20T20:52:18.470Z,35.67
2019-04-20T20:54:49.840Z,35.64
2019-04-20T20:57:20.032Z,35.78
2019-04-20T20:59:57.436Z,36.00
2019-04-20T21:02:43.482Z,35.88
2019-04-20T21:05:07.018Z,36.08
2019-04-20T21:07:42.776Z,36.25
2019-04-20T21:10:26.890Z,35.93
2019-04-20T21:13:01.422Z,35.85
2019-04-20T21:15:33.371Z,35.79
2019-04-20T21:18:35.115Z,35.88
2019-04-20T21:21:02.228Z,36.00
2019-04-20T21:23:36.700Z,36.12
2019-04-20T21:26:12.719Z,36.50
2019-04-20T21:28:45.817Z,36.29
2019-04-20T21:31:24.320Z,36.23
2019-04-20T21:34:02.854Z,36.08
2019-04-20T21:36:35.226Z,36.19
2019-04-20T21:39:22.092Z,36.18
2019-04-20T21:41:56.817Z,36.32
2019-04-20T21:44:29.479Z,36.47
2019-04-20T21:47:03.391Z,36.81
2019-04-20T21:49:53.181Z,37.12
2019-04-20T21:52:24.907Z,36.90
2019-04-20T21:55:00.126Z,37.06
2019-04-20T21:57:46.246Z,37.09
2019-04-20T22:00:42.593Z,36.86
2019-04-20T22:03:18.436Z,37.31
2019-04-20T22:06:02.433Z,37.01
2019-04-20T22:08:39.472Z,36.96
2019-04-20T22:11:15.800Z,37.24
2019-04-20T22:13:53.325Z,37.18
2019-04-20T22:16:35.353Z,37.22
2019-04-20T22:19:22.501Z,37.50
2019-04-20T22:21:58.118Z,37.68
2019-04-20T22:24:40.033Z,37.67
2019-04-20T22:27:06.266Z,37.81
2019-04-20T22:29:36.307Z,37.85
2019-04-20T22:32:20.423Z,37.87
2019-04-20T22:35:01.383Z,38.08
2019-04-20T22:37:38.248Z,38.08
2019-04-20T22:40:22.086Z,38.18
2019-04-20T22:42:54.329Z,38.21
2019-04-20T22:45:29.604Z,38.76
2019-04-20T22:48:09.072Z,38.29
2019-04-20T22:51:01.671Z,38.09
2019-04-20T22:53:36.471Z,38.19
2019-04-20T22:56:18.733Z,38.29
2019-04-20T22:58:44.750Z,38.33
2019-04-20T23:01:24.942Z,38.38
2019-04-20T23:03:52.693Z,38.51
2019-04-20T23:06:33.385Z,38.65
2019-04-20T23:09:12.613Z,38.53
2019-04-20T23:11:45.259Z,38.47
2019-04-20T23:14:20.391Z,38.51
2019-04-20T23:16:57.473Z,38.08
2019-04-20T23:19:40.653Z,38.25
2019-04-20T23:22:13.819Z,38.23
2019-04-20T23:24:49.223Z,38.13
2019-04-20T23:27:31.246Z,38.37
2019-04-20T23:30:12.644Z,38.44
2019-04-20T23:32:42.555Z,38.38
2019-04-20T23:35:20.067Z,38.61
2019-04-20T23:38:01.560Z,38.50
2019-04-20T23:40:31.971Z,38.37
2019-04-20T23:43:31.540Z,38.37
2019-04-20T23:46:21.356Z,38.28
2019-04-20T23:49:19.987Z,38.36
2019-04-20T23:52:09.485Z,38.28
2019-04-20T23:54:31.474Z,38.25
2019-04-20T23:57:05.913Z,38.17
2019-04-20T23:59:44.875Z,38.17
